sensor_id;sensor_type;location;lat;lon;timestamp;temperature;humidity
9323;DHT22;4700;48.822;9.270;2023-02-01T00:01:18;5.00;1.00
9323;DHT22;4700;48.822;9.270;2023-02-01T00:04:03;5.00;1.00
9323;DHT22;4700;48.822;9.270;2023-02-01T00:06:49;5.00;1.00
9323;DHT22;4700;48.822;9.270;2023-02-01T00:09:35;4.90;1.00
9323;DHT22;4700;48.822;9.270;2023-02-01T00:12:21;5.00;1.00
9323;DHT22;4700;48.822;9.270;2023-02-01T00:15:08;4.90;1.00
9323;DHT22;4700;48.822;9.270;2023-02-01T00:17:55;5.00;1.00
9323;DHT22;4700;48.822;9.270;2023-02-01T00:20:45;4.80;1.00
9323;DHT22;4700;48.822;9.270;2023-02-01T00:23:32;4.80;1.00
9323;DHT22;4700;48.822;9.270;2023-02-01T00:26:28;4.80;1.00
9323;DHT22;4700;48.822;9.270;2023-02-01T00:29:19;4.80;1.00
9323;DHT22;4700;48.822;9.270;2023-02-01T00:32:06;4.70;1.00
9323;DHT22;4700;48.822;9.270;2023-02-01T00:34:53;4.60;1.00
9323;DHT22;4700;48.822;9.270;2023-02-01T00:37:39;4.60;1.00
9323;DHT22;4700;48.822;9.270;2023-02-01T00:40:25;4.70;1.00
9323;DHT22;4700;48.822;9.270;2023-02-01T00:43:11;4.60;1.00
9323;DHT22;4700;48.822;9.270;2023-02-01T00:45:57;4.70;1.00
9323;DHT22;4700;48.822;9.270;2023-02-01T00:48:43;4.70;1.00
9323;DHT22;4700;48.822;9.270;2023-02-01T00:51:30;4.60;1.00
9323;DHT22;4700;48.822;9.270;2023-02-01T00:59:22;4.70;1.00
9323;DHT22;4700;48.822;9.270;2023-02-01T01:02:08;4.60;1.00
9323;DHT22;4700;48.822;9.270;2023-02-01T01:04:55;4.70;1.00
9323;DHT22;4700;48.822;9.270;2023-02-01T01:07:42;4.60;1.00
9323;DHT22;4700;48.822;9.270;2023-02-01T01:10:28;4.50;1.00
9323;DHT22;4700;48.822;9.270;2023-02-01T01:13:14;4.50;1.00
9323;DHT22;4700;48.822;9.270;2023-02-01T01:16:01;4.60;1.00
9323;DHT22;4700;48.822;9.270;2023-02-01T01:18:48;4.50;1.00
9323;DHT22;4700;48.822;9.270;2023-02-01T01:21:34;4.40;1.00
9323;DHT22;4700;48.822;9.270;2023-02-01T01:24:21;4.40;1.00
9323;DHT22;4700;48.822;9.270;2023-02-01T01:27:07;4.40;1.00
9323;DHT22;4700;48.822;9.270;2023-02-01T01:29:53;4.60;1.00
9323;DHT22;4700;48.822;9.270;2023-02-01T01:32:39;4.50;1.00
9323;DHT22;4700;48.822;9.270;2023-02-01T01:35:24;4.60;1.00
9323;DHT22;4700;48.822;9.270;2023-02-01T01:38:10;4.60;1.00
9323;DHT22;4700;48.822;9.270;2023-02-01T01:40:58;4.60;1.00
9323;DHT22;4700;48.822;9.270;2023-02-01T01:43:55;4.70;1.00
9323;DHT22;4700;48.822;9.270;2023-02-01T01:46:42;4.70;1.00
9323;DHT22;4700;48.822;9.270;2023-02-01T01:49:28;4.70;1.00
9323;DHT22;4700;48.822;9.270;2023-02-01T01:52:14;4.60;1.00
9323;DHT22;4700;48.822;9.270;2023-02-01T01:55:00;4.70;1.00
9323;DHT22;4700;48.822;9.270;2023-02-01T01:57:52;4.80;1.00
9323;DHT22;4700;48.822;9.270;2023-02-01T02:00:35;4.70;1.00
9323;DHT22;4700;48.822;9.270;2023-02-01T02:03:24;4.70;1.00
9323;DHT22;4700;48.822;9.270;2023-02-01T02:06:15;5.00;1.00
9323;DHT22;4700;48.822;9.270;2023-02-01T02:09:05;4.90;1.00
9323;DHT22;4700;48.822;9.270;2023-02-01T02:11:51;4.90;1.00
9323;DHT22;4700;48.822;9.270;2023-02-01T02:14:38;5.00;1.00
9323;DHT22;4700;48.822;9.270;2023-02-01T02:17:32;4.90;1.00
9323;DHT22;4700;48.822;9.270;2023-02-01T02:20:51;4.90;1.00
9323;DHT22;4700;48.822;9.270;2023-02-01T02:23:58;4.90;1.00
9323;DHT22;4700;48.822;9.270;2023-02-01T02:27:02;4.90;1.00
9323;DHT22;4700;48.822;9.270;2023-02-01T02:30:16;5.10;1.00
9323;DHT22;4700;48.822;9.270;2023-02-01T02:33:40;5.00;1.00
9323;DHT22;4700;48.822;9.270;2023-02-01T02:36:34;4.90;1.00
9323;DHT22;4700;48.822;9.270;2023-02-01T02:39:24;5.10;1.00
9323;DHT22;4700;48.822;9.270;2023-02-01T02:42:19;4.90;1.00
9323;DHT22;4700;48.822;9.270;2023-02-01T02:45:33;5.00;1.00
9323;DHT22;4700;48.822;9.270;2023-02-01T02:48:46;4.90;1.00
9323;DHT22;4700;48.822;9.270;2023-02-01T02:51:40;4.90;1.00
9323;DHT22;4700;48.822;9.270;2023-02-01T02:54:47;5.00;1.00
9323;DHT22;4700;48.822;9.270;2023-02-01T02:57:37;5.00;1.00
9323;DHT22;4700;48.822;9.270;2023-02-01T03:00:42;5.00;1.00
9323;DHT22;4700;48.822;9.270;2023-02-01T03:03:48;5.00;1.00
9323;DHT22;4700;48.822;9.270;2023-02-01T03:06:54;5.00;1.00
9323;DHT22;4700;48.822;9.270;2023-02-01T03:09:41;5.20;1.00
9323;DHT22;4700;48.822;9.270;2023-02-01T03:12:31;5.20;1.00
9323;DHT22;4700;48.822;9.270;2023-02-01T03:15:41;5.10;1.00
9323;DHT22;4700;48.822;9.270;2023-02-01T03:18:33;5.00;1.00
9323;DHT22;4700;48.822;9.270;2023-02-01T03:21:26;5.20;1.00
9323;DHT22;4700;48.822;9.270;2023-02-01T03:24:17;5.10;1.00
9323;DHT22;4700;48.822;9.270;2023-02-01T03:27:05;5.00;1.00
9323;DHT22;4700;48.822;9.270;2023-02-01T03:29:58;5.20;1.00
9323;DHT22;4700;48.822;9.270;2023-02-01T03:36:29;5.10;1.00
9323;DHT22;4700;48.822;9.270;2023-02-01T03:39:24;5.50;1.00
9323;DHT22;4700;48.822;9.270;2023-02-01T03:42:17;5.10;1.00
9323;DHT22;4700;48.822;9.270;2023-02-01T03:45:07;5.00;1.00
9323;DHT22;4700;48.822;9.270;2023-02-01T03:47:59;5.10;1.00
9323;DHT22;4700;48.822;9.270;2023-02-01T03:50:49;5.00;1.00
9323;DHT22;4700;48.822;9.270;2023-02-01T03:53:40;5.00;1.00
9323;DHT22;4700;48.822;9.270;2023-02-01T03:56:28;5.00;1.00
9323;DHT22;4700;48.822;9.270;2023-02-01T03:59:15;5.00;1.00
9323;DHT22;4700;48.822;9.270;2023-02-01T04:02:00;5.00;1.00
9323;DHT22;4700;48.822;9.270;2023-02-01T04:04:46;5.10;1.00
9323;DHT22;4700;48.822;9.270;2023-02-01T04:07:32;5.00;1.00
9323;DHT22;4700;48.822;9.270;2023-02-01T04:10:19;5.10;1.00
9323;DHT22;4700;48.822;9.270;2023-02-01T04:13:05;5.20;1.00
9323;DHT22;4700;48.822;9.270;2023-02-01T04:15:51;5.10;1.00
9323;DHT22;4700;48.822;9.270;2023-02-01T04:18:37;5.10;1.00
9323;DHT22;4700;48.822;9.270;2023-02-01T04:21:23;5.30;1.00
9323;DHT22;4700;48.822;9.270;2023-02-01T04:24:09;5.10;1.00
9323;DHT22;4700;48.822;9.270;2023-02-01T04:26:57;5.30;1.00
9323;DHT22;4700;48.822;9.270;2023-02-01T04:29:43;5.10;1.00
9323;DHT22;4700;48.822;9.270;2023-02-01T04:32:29;5.30;1.00
9323;DHT22;4700;48.822;9.270;2023-02-01T04:35:15;5.20;1.00
9323;DHT22;4700;48.822;9.270;2023-02-01T04:38:01;5.20;1.00
9323;DHT22;4700;48.822;9.270;2023-02-01T04:40:50;5.10;1.00
9323;DHT22;4700;48.822;9.270;2023-02-01T04:43:37;5.10;1.00
9323;DHT22;4700;48.822;9.270;2023-02-01T04:46:22;5.10;1.00
9323;DHT22;4700;48.822;9.270;2023-02-01T04:49:09;5.00;1.00
9323;DHT22;4700;48.822;9.270;2023-02-01T04:51:54;5.90;1.00
9323;DHT22;4700;48.822;9.270;2023-02-01T04:54:40;5.10;1.00
9323;DHT22;4700;48.822;9.270;2023-02-01T04:57:26;6.00;1.00
9323;DHT22;4700;48.822;9.270;2023-02-01T05:00:14;5.10;1.00
9323;DHT22;4700;48.822;9.270;2023-02-01T05:03:00;5.10;1.00
9323;DHT22;4700;48.822;9.270;2023-02-01T05:05:47;4.90;1.00
9323;DHT22;4700;48.822;9.270;2023-02-01T05:08:33;5.00;1.00
9323;DHT22;4700;48.822;9.270;2023-02-01T05:11:19;5.00;1.00
9323;DHT22;4700;48.822;9.270;2023-02-01T05:14:23;4.80;1.00
9323;DHT22;4700;48.822;9.270;2023-02-01T05:17:13;4.90;1.00
9323;DHT22;4700;48.822;9.270;2023-02-01T05:19:58;5.00;1.00
9323;DHT22;4700;48.822;9.270;2023-02-01T05:22:44;5.00;1.00
9323;DHT22;4700;48.822;9.270;2023-02-01T05:25:30;5.10;1.00
9323;DHT22;4700;48.822;9.270;2023-02-01T05:28:16;5.20;1.00
9323;DHT22;4700;48.822;9.270;2023-02-01T05:31:09;4.90;1.00
9323;DHT22;4700;48.822;9.270;2023-02-01T05:33:56;5.20;1.00
9323;DHT22;4700;48.822;9.270;2023-02-01T05:36:42;5.20;1.00
9323;DHT22;4700;48.822;9.270;2023-02-01T05:39:28;5.20;1.00
9323;DHT22;4700;48.822;9.270;2023-02-01T05:42:14;5.20;1.00
9323;DHT22;4700;48.822;9.270;2023-02-01T05:45:00;5.20;1.00
9323;DHT22;4700;48.822;9.270;2023-02-01T05:47:46;5.30;1.00
9323;DHT22;4700;48.822;9.270;2023-02-01T05:50:33;5.40;1.00
9323;DHT22;4700;48.822;9.270;2023-02-01T05:53:18;5.50;1.00
9323;DHT22;4700;48.822;9.270;2023-02-01T05:56:05;5.50;1.00
9323;DHT22;4700;48.822;9.270;2023-02-01T05:58:51;5.50;1.00
9323;DHT22;4700;48.822;9.270;2023-02-01T06:01:37;5.50;1.00
9323;DHT22;4700;48.822;9.270;2023-02-01T06:04:23;5.40;1.00
9323;DHT22;4700;48.822;9.270;2023-02-01T06:07:10;5.10;1.00
9323;DHT22;4700;48.822;9.270;2023-02-01T06:09:56;5.50;1.00
9323;DHT22;4700;48.822;9.270;2023-02-01T06:12:41;5.40;1.00
9323;DHT22;4700;48.822;9.270;2023-02-01T06:15:27;5.40;1.00
9323;DHT22;4700;48.822;9.270;2023-02-01T06:18:12;5.50;1.00
9323;DHT22;4700;48.822;9.270;2023-02-01T06:21:00;5.60;1.00
9323;DHT22;4700;48.822;9.270;2023-02-01T06:23:47;5.20;1.00
9323;DHT22;4700;48.822;9.270;2023-02-01T06:26:33;5.50;1.00
9323;DHT22;4700;48.822;9.270;2023-02-01T06:29:21;5.60;1.00
9323;DHT22;4700;48.822;9.270;2023-02-01T06:32:07;5.40;1.00
9323;DHT22;4700;48.822;9.270;2023-02-01T06:34:53;5.20;1.00
9323;DHT22;4700;48.822;9.270;2023-02-01T06:37:40;5.20;1.00
9323;DHT22;4700;48.822;9.270;2023-02-01T06:40:27;5.30;1.00
9323;DHT22;4700;48.822;9.270;2023-02-01T06:43:13;5.30;1.00
9323;DHT22;4700;48.822;9.270;2023-02-01T06:46:00;5.30;1.00
9323;DHT22;4700;48.822;9.270;2023-02-01T06:48:46;5.30;1.00
9323;DHT22;4700;48.822;9.270;2023-02-01T06:51:33;5.30;1.00
9323;DHT22;4700;48.822;9.270;2023-02-01T06:54:19;5.40;1.00
9323;DHT22;4700;48.822;9.270;2023-02-01T06:57:06;5.20;1.00
9323;DHT22;4700;48.822;9.270;2023-02-01T06:59:54;5.40;1.00
9323;DHT22;4700;48.822;9.270;2023-02-01T07:02:40;5.30;1.00
9323;DHT22;4700;48.822;9.270;2023-02-01T07:05:27;5.40;1.00
9323;DHT22;4700;48.822;9.270;2023-02-01T07:08:13;5.30;1.00
9323;DHT22;4700;48.822;9.270;2023-02-01T07:11:03;5.40;1.00
9323;DHT22;4700;48.822;9.270;2023-02-01T07:13:52;5.50;1.00
9323;DHT22;4700;48.822;9.270;2023-02-01T07:16:40;5.60;1.00
9323;DHT22;4700;48.822;9.270;2023-02-01T07:19:27;5.60;1.00
9323;DHT22;4700;48.822;9.270;2023-02-01T07:22:17;5.40;1.00
9323;DHT22;4700;48.822;9.270;2023-02-01T07:25:11;5.60;1.00
9323;DHT22;4700;48.822;9.270;2023-02-01T07:27:57;5.70;1.00
9323;DHT22;4700;48.822;9.270;2023-02-01T07:30:47;5.70;1.00
9323;DHT22;4700;48.822;9.270;2023-02-01T07:33:35;5.70;1.00
9323;DHT22;4700;48.822;9.270;2023-02-01T07:36:21;5.70;1.00
9323;DHT22;4700;48.822;9.270;2023-02-01T07:39:07;5.70;1.00
9323;DHT22;4700;48.822;9.270;2023-02-01T07:41:52;5.70;1.00
9323;DHT22;4700;48.822;9.270;2023-02-01T07:44:38;5.70;1.00
9323;DHT22;4700;48.822;9.270;2023-02-01T07:47:25;5.80;1.00
9323;DHT22;4700;48.822;9.270;2023-02-01T07:50:11;5.90;1.00
9323;DHT22;4700;48.822;9.270;2023-02-01T07:52:58;5.90;1.00
9323;DHT22;4700;48.822;9.270;2023-02-01T07:55:44;5.90;1.00
9323;DHT22;4700;48.822;9.270;2023-02-01T07:58:32;6.00;1.00
9323;DHT22;4700;48.822;9.270;2023-02-01T08:01:20;5.90;1.00
9323;DHT22;4700;48.822;9.270;2023-02-01T08:04:12;5.90;1.00
9323;DHT22;4700;48.822;9.270;2023-02-01T08:06:58;6.00;1.00
9323;DHT22;4700;48.822;9.270;2023-02-01T08:09:44;6.10;1.00
9323;DHT22;4700;48.822;9.270;2023-02-01T08:12:29;6.00;1.00
9323;DHT22;4700;48.822;9.270;2023-02-01T08:15:18;6.00;1.00
9323;DHT22;4700;48.822;9.270;2023-02-01T08:18:04;5.80;1.00
9323;DHT22;4700;48.822;9.270;2023-02-01T08:20:51;6.00;1.00
9323;DHT22;4700;48.822;9.270;2023-02-01T08:23:38;6.00;1.00
9323;DHT22;4700;48.822;9.270;2023-02-01T08:26:25;6.20;1.00
9323;DHT22;4700;48.822;9.270;2023-02-01T08:29:12;6.10;1.00
9323;DHT22;4700;48.822;9.270;2023-02-01T08:31:58;6.40;1.00
9323;DHT22;4700;48.822;9.270;2023-02-01T08:34:43;6.50;1.00
9323;DHT22;4700;48.822;9.270;2023-02-01T08:37:31;6.70;1.00
9323;DHT22;4700;48.822;9.270;2023-02-01T08:40:17;6.90;1.00
9323;DHT22;4700;48.822;9.270;2023-02-01T08:43:04;6.90;1.00
9323;DHT22;4700;48.822;9.270;2023-02-01T08:45:50;7.00;1.00
9323;DHT22;4700;48.822;9.270;2023-02-01T08:48:39;7.00;1.00
9323;DHT22;4700;48.822;9.270;2023-02-01T08:51:24;7.00;1.00
9323;DHT22;4700;48.822;9.270;2023-02-01T08:54:12;7.10;1.00
9323;DHT22;4700;48.822;9.270;2023-02-01T08:56:59;7.00;1.00
9323;DHT22;4700;48.822;9.270;2023-02-01T08:59:44;7.00;1.00
9323;DHT22;4700;48.822;9.270;2023-02-01T09:02:28;6.90;1.00
9323;DHT22;4700;48.822;9.270;2023-02-01T09:05:14;7.00;1.00
9323;DHT22;4700;48.822;9.270;2023-02-01T09:08:03;7.10;1.00
9323;DHT22;4700;48.822;9.270;2023-02-01T09:10:50;7.10;1.00
9323;DHT22;4700;48.822;9.270;2023-02-01T09:13:36;7.00;1.00
9323;DHT22;4700;48.822;9.270;2023-02-01T09:16:26;7.00;1.00
9323;DHT22;4700;48.822;9.270;2023-02-01T09:19:13;6.90;1.00
9323;DHT22;4700;48.822;9.270;2023-02-01T09:21:59;6.70;1.00
9323;DHT22;4700;48.822;9.270;2023-02-01T09:24:45;6.30;1.00
9323;DHT22;4700;48.822;9.270;2023-02-01T09:27:32;6.70;1.00
9323;DHT22;4700;48.822;9.270;2023-02-01T09:30:18;6.70;1.00
9323;DHT22;4700;48.822;9.270;2023-02-01T09:33:04;6.70;1.00
9323;DHT22;4700;48.822;9.270;2023-02-01T09:35:55;6.60;1.00
9323;DHT22;4700;48.822;9.270;2023-02-01T09:38:42;6.70;1.00
9323;DHT22;4700;48.822;9.270;2023-02-01T09:41:37;6.90;1.00
9323;DHT22;4700;48.822;9.270;2023-02-01T09:44:42;7.20;1.00
9323;DHT22;4700;48.822;9.270;2023-02-01T09:47:31;7.30;1.00
9323;DHT22;4700;48.822;9.270;2023-02-01T09:50:19;7.30;1.00
9323;DHT22;4700;48.822;9.270;2023-02-01T09:53:12;7.20;1.00
9323;DHT22;4700;48.822;9.270;2023-02-01T09:56:04;7.10;1.00
9323;DHT22;4700;48.822;9.270;2023-02-01T09:58:55;7.00;1.00
9323;DHT22;4700;48.822;9.270;2023-02-01T10:01:44;7.10;1.00
9323;DHT22;4700;48.822;9.270;2023-02-01T10:04:30;7.10;1.00
9323;DHT22;4700;48.822;9.270;2023-02-01T10:07:25;7.20;1.00
9323;DHT22;4700;48.822;9.270;2023-02-01T10:10:20;7.20;1.00
9323;DHT22;4700;48.822;9.270;2023-02-01T10:13:27;7.30;1.00
9323;DHT22;4700;48.822;9.270;2023-02-01T10:16:20;7.30;1.00
9323;DHT22;4700;48.822;9.270;2023-02-01T10:19:29;7.30;1.00
9323;DHT22;4700;48.822;9.270;2023-02-01T10:22:29;7.50;1.00
9323;DHT22;4700;48.822;9.270;2023-02-01T10:25:22;7.80;1.00
9323;DHT22;4700;48.822;9.270;2023-02-01T10:28:12;8.00;1.00
9323;DHT22;4700;48.822;9.270;2023-02-01T10:31:00;8.00;1.00
9323;DHT22;4700;48.822;9.270;2023-02-01T10:33:48;8.00;1.00
9323;DHT22;4700;48.822;9.270;2023-02-01T10:36:41;7.90;1.00
9323;DHT22;4700;48.822;9.270;2023-02-01T10:39:30;8.00;1.00
9323;DHT22;4700;48.822;9.270;2023-02-01T10:42:17;8.10;1.00
9323;DHT22;4700;48.822;9.270;2023-02-01T10:45:06;8.00;1.00
9323;DHT22;4700;48.822;9.270;2023-02-01T10:47:53;7.80;1.00
9323;DHT22;4700;48.822;9.270;2023-02-01T10:50:46;7.80;1.00
9323;DHT22;4700;48.822;9.270;2023-02-01T10:53:42;7.60;1.00
9323;DHT22;4700;48.822;9.270;2023-02-01T10:56:29;7.50;1.00
9323;DHT22;4700;48.822;9.270;2023-02-01T10:59:17;7.40;1.00
9323;DHT22;4700;48.822;9.270;2023-02-01T11:02:15;7.50;1.00
9323;DHT22;4700;48.822;9.270;2023-02-01T11:05:07;7.40;1.00
9323;DHT22;4700;48.822;9.270;2023-02-01T11:07:54;7.40;1.00
9323;DHT22;4700;48.822;9.270;2023-02-01T11:10:42;7.30;1.00
9323;DHT22;4700;48.822;9.270;2023-02-01T11:13:30;7.40;1.00
9323;DHT22;4700;48.822;9.270;2023-02-01T11:16:18;7.50;1.00
9323;DHT22;4700;48.822;9.270;2023-02-01T11:19:05;7.60;1.00
9323;DHT22;4700;48.822;9.270;2023-02-01T11:21:52;7.70;1.00
9323;DHT22;4700;48.822;9.270;2023-02-01T11:24:39;7.60;1.00
9323;DHT22;4700;48.822;9.270;2023-02-01T11:27:27;7.50;1.00
9323;DHT22;4700;48.822;9.270;2023-02-01T11:30:17;7.60;1.00
9323;DHT22;4700;48.822;9.270;2023-02-01T11:33:09;7.60;1.00
9323;DHT22;4700;48.822;9.270;2023-02-01T11:36:05;7.60;1.00
9323;DHT22;4700;48.822;9.270;2023-02-01T11:38:54;7.50;1.00
9323;DHT22;4700;48.822;9.270;2023-02-01T11:42:00;7.70;1.00
9323;DHT22;4700;48.822;9.270;2023-02-01T11:44:47;7.70;1.00
9323;DHT22;4700;48.822;9.270;2023-02-01T11:47:39;7.80;1.00
9323;DHT22;4700;48.822;9.270;2023-02-01T11:50:31;8.10;1.00
9323;DHT22;4700;48.822;9.270;2023-02-01T11:53:41;7.70;1.00
9323;DHT22;4700;48.822;9.270;2023-02-01T11:56:35;7.70;1.00
9323;DHT22;4700;48.822;9.270;2023-02-01T11:59:32;7.80;1.00
9323;DHT22;4700;48.822;9.270;2023-02-01T12:02:38;7.60;1.00
9323;DHT22;4700;48.822;9.270;2023-02-01T12:09:05;7.30;1.00
9323;DHT22;4700;48.822;9.270;2023-02-01T12:11:59;7.50;1.00
9323;DHT22;4700;48.822;9.270;2023-02-01T12:15:12;5.90;1.00
9323;DHT22;4700;48.822;9.270;2023-02-01T12:18:45;7.50;1.00
9323;DHT22;4700;48.822;9.270;2023-02-01T12:21:57;7.30;1.00
9323;DHT22;4700;48.822;9.270;2023-02-01T12:28:31;7.30;1.00
9323;DHT22;4700;48.822;9.270;2023-02-01T12:31:43;7.30;1.00
9323;DHT22;4700;48.822;9.270;2023-02-01T12:38:17;7.30;1.00
9323;DHT22;4700;48.822;9.270;2023-02-01T12:41:36;7.20;1.00
9323;DHT22;4700;48.822;9.270;2023-02-01T12:44:45;7.40;1.00
9323;DHT22;4700;48.822;9.270;2023-02-01T12:47:39;7.20;1.00
9323;DHT22;4700;48.822;9.270;2023-02-01T12:50:32;7.30;1.00
9323;DHT22;4700;48.822;9.270;2023-02-01T12:53:24;7.30;1.00
9323;DHT22;4700;48.822;9.270;2023-02-01T12:56:16;7.10;1.00
9323;DHT22;4700;48.822;9.270;2023-02-01T12:59:15;6.90;1.00
9323;DHT22;4700;48.822;9.270;2023-02-01T13:02:11;6.80;1.00
9323;DHT22;4700;48.822;9.270;2023-02-01T13:05:04;6.80;1.00
9323;DHT22;4700;48.822;9.270;2023-02-01T13:08:02;6.80;1.00
9323;DHT22;4700;48.822;9.270;2023-02-01T13:10:53;6.70;1.00
9323;DHT22;4700;48.822;9.270;2023-02-01T13:13:53;6.60;1.00
9323;DHT22;4700;48.822;9.270;2023-02-01T13:16:44;6.50;1.00
9323;DHT22;4700;48.822;9.270;2023-02-01T13:19:39;6.50;1.00
9323;DHT22;4700;48.822;9.270;2023-02-01T13:22:30;6.50;1.00
9323;DHT22;4700;48.822;9.270;2023-02-01T13:25:27;6.30;1.00
9323;DHT22;4700;48.822;9.270;2023-02-01T13:28:17;6.40;1.00
9323;DHT22;4700;48.822;9.270;2023-02-01T13:31:20;6.60;1.00
9323;DHT22;4700;48.822;9.270;2023-02-01T13:40:55;6.70;1.00
9323;DHT22;4700;48.822;9.270;2023-02-01T13:43:49;6.80;1.00
9323;DHT22;4700;48.822;9.270;2023-02-01T13:46:40;6.80;1.00
9323;DHT22;4700;48.822;9.270;2023-02-01T13:49:28;6.80;1.00
9323;DHT22;4700;48.822;9.270;2023-02-01T13:52:29;6.90;1.00
9323;DHT22;4700;48.822;9.270;2023-02-01T13:55:26;6.90;1.00
9323;DHT22;4700;48.822;9.270;2023-02-01T13:58:19;7.00;1.00
9323;DHT22;4700;48.822;9.270;2023-02-01T14:03:44;7.00;1.00
9323;DHT22;4700;48.822;9.270;2023-02-01T14:06:43;7.00;1.00
9323;DHT22;4700;48.822;9.270;2023-02-01T14:09:34;6.90;1.00
9323;DHT22;4700;48.822;9.270;2023-02-01T14:12:48;6.80;1.00
9323;DHT22;4700;48.822;9.270;2023-02-01T14:15:37;6.70;1.00
9323;DHT22;4700;48.822;9.270;2023-02-01T14:18:49;6.70;1.00
9323;DHT22;4700;48.822;9.270;2023-02-01T14:21:46;6.90;1.00
9323;DHT22;4700;48.822;9.270;2023-02-01T14:24:34;6.90;1.00
9323;DHT22;4700;48.822;9.270;2023-02-01T14:27:25;7.00;1.00
9323;DHT22;4700;48.822;9.270;2023-02-01T14:30:15;7.00;1.00
9323;DHT22;4700;48.822;9.270;2023-02-01T14:33:18;7.00;1.00
9323;DHT22;4700;48.822;9.270;2023-02-01T14:36:08;7.00;1.00
9323;DHT22;4700;48.822;9.270;2023-02-01T14:38:55;6.90;1.00
9323;DHT22;4700;48.822;9.270;2023-02-01T14:41:42;6.80;1.00
9323;DHT22;4700;48.822;9.270;2023-02-01T14:44:34;6.90;1.00
9323;DHT22;4700;48.822;9.270;2023-02-01T14:47:31;6.90;1.00
9323;DHT22;4700;48.822;9.270;2023-02-01T14:50:27;6.90;1.00
9323;DHT22;4700;48.822;9.270;2023-02-01T14:53:18;7.10;1.00
9323;DHT22;4700;48.822;9.270;2023-02-01T14:56:09;6.90;1.00
9323;DHT22;4700;48.822;9.270;2023-02-01T14:59:01;6.80;1.00
9323;DHT22;4700;48.822;9.270;2023-02-01T15:01:57;6.80;1.00
9323;DHT22;4700;48.822;9.270;2023-02-01T15:04:57;6.90;1.00
9323;DHT22;4700;48.822;9.270;2023-02-01T15:07:46;6.70;1.00
9323;DHT22;4700;48.822;9.270;2023-02-01T15:10:40;6.80;1.00
9323;DHT22;4700;48.822;9.270;2023-02-01T15:13:28;6.90;1.00
9323;DHT22;4700;48.822;9.270;2023-02-01T15:16:16;6.90;1.00
9323;DHT22;4700;48.822;9.270;2023-02-01T15:19:10;6.70;1.00
9323;DHT22;4700;48.822;9.270;2023-02-01T15:21:58;6.70;1.00
9323;DHT22;4700;48.822;9.270;2023-02-01T15:24:52;6.70;1.00
9323;DHT22;4700;48.822;9.270;2023-02-01T15:27:38;6.60;1.00
9323;DHT22;4700;48.822;9.270;2023-02-01T15:30:28;6.70;1.00
9323;DHT22;4700;48.822;9.270;2023-02-01T15:33:16;6.70;1.00
9323;DHT22;4700;48.822;9.270;2023-02-01T15:36:09;6.70;1.00
9323;DHT22;4700;48.822;9.270;2023-02-01T15:39:19;6.70;1.00
9323;DHT22;4700;48.822;9.270;2023-02-01T15:42:12;6.70;1.00
9323;DHT22;4700;48.822;9.270;2023-02-01T15:45:00;6.60;1.00
9323;DHT22;4700;48.822;9.270;2023-02-01T15:47:48;6.50;1.00
9323;DHT22;4700;48.822;9.270;2023-02-01T15:50:33;6.60;1.00
9323;DHT22;4700;48.822;9.270;2023-02-01T15:53:26;6.70;1.00
9323;DHT22;4700;48.822;9.270;2023-02-01T15:56:15;6.70;1.00
9323;DHT22;4700;48.822;9.270;2023-02-01T15:59:12;6.70;1.00
9323;DHT22;4700;48.822;9.270;2023-02-01T16:01:58;6.60;1.00
9323;DHT22;4700;48.822;9.270;2023-02-01T16:04:48;6.70;1.00
9323;DHT22;4700;48.822;9.270;2023-02-01T16:07:35;6.60;1.00
9323;DHT22;4700;48.822;9.270;2023-02-01T16:10:25;6.60;1.00
9323;DHT22;4700;48.822;9.270;2023-02-01T16:13:12;6.70;1.00
9323;DHT22;4700;48.822;9.270;2023-02-01T16:15:59;6.60;1.00
9323;DHT22;4700;48.822;9.270;2023-02-01T16:18:45;6.70;1.00
9323;DHT22;4700;48.822;9.270;2023-02-01T16:21:31;6.70;1.00
9323;DHT22;4700;48.822;9.270;2023-02-01T16:24:16;6.60;1.00
9323;DHT22;4700;48.822;9.270;2023-02-01T16:27:03;6.60;1.00
9323;DHT22;4700;48.822;9.270;2023-02-01T16:29:49;6.80;1.00
9323;DHT22;4700;48.822;9.270;2023-02-01T16:32:38;6.60;1.00
9323;DHT22;4700;48.822;9.270;2023-02-01T16:35:25;6.60;1.00
9323;DHT22;4700;48.822;9.270;2023-02-01T16:38:13;6.60;1.00
9323;DHT22;4700;48.822;9.270;2023-02-01T16:40:59;6.60;1.00
9323;DHT22;4700;48.822;9.270;2023-02-01T16:43:49;6.50;1.00
9323;DHT22;4700;48.822;9.270;2023-02-01T16:46:39;6.70;1.00
9323;DHT22;4700;48.822;9.270;2023-02-01T16:49:27;6.60;1.00
9323;DHT22;4700;48.822;9.270;2023-02-01T16:52:15;6.70;1.00
9323;DHT22;4700;48.822;9.270;2023-02-01T16:55:03;6.60;1.00
9323;DHT22;4700;48.822;9.270;2023-02-01T16:57:49;6.50;1.00
9323;DHT22;4700;48.822;9.270;2023-02-01T17:00:36;6.50;1.00
9323;DHT22;4700;48.822;9.270;2023-02-01T17:03:22;6.50;1.00
9323;DHT22;4700;48.822;9.270;2023-02-01T17:06:11;6.50;1.00
9323;DHT22;4700;48.822;9.270;2023-02-01T17:08:59;6.30;1.00
9323;DHT22;4700;48.822;9.270;2023-02-01T17:11:46;6.20;1.00
9323;DHT22;4700;48.822;9.270;2023-02-01T17:14:35;6.30;1.00
9323;DHT22;4700;48.822;9.270;2023-02-01T17:17:25;6.30;1.00
9323;DHT22;4700;48.822;9.270;2023-02-01T17:20:19;6.30;1.00
9323;DHT22;4700;48.822;9.270;2023-02-01T17:23:10;6.40;1.00
9323;DHT22;4700;48.822;9.270;2023-02-01T17:25:57;6.30;1.00
9323;DHT22;4700;48.822;9.270;2023-02-01T17:28:42;6.30;1.00
9323;DHT22;4700;48.822;9.270;2023-02-01T17:31:28;6.30;1.00
9323;DHT22;4700;48.822;9.270;2023-02-01T17:34:15;6.30;1.00
9323;DHT22;4700;48.822;9.270;2023-02-01T17:37:05;6.30;1.00
9323;DHT22;4700;48.822;9.270;2023-02-01T17:39:53;6.50;1.00
9323;DHT22;4700;48.822;9.270;2023-02-01T17:42:41;6.50;1.00
9323;DHT22;4700;48.822;9.270;2023-02-01T17:45:34;6.60;1.00
9323;DHT22;4700;48.822;9.270;2023-02-01T17:48:21;6.60;1.00
9323;DHT22;4700;48.822;9.270;2023-02-01T17:51:21;6.60;1.00
9323;DHT22;4700;48.822;9.270;2023-02-01T17:54:11;6.70;1.00
9323;DHT22;4700;48.822;9.270;2023-02-01T17:56:59;6.60;1.00
9323;DHT22;4700;48.822;9.270;2023-02-01T17:59:46;6.60;1.00
9323;DHT22;4700;48.822;9.270;2023-02-01T18:02:32;6.50;1.00
9323;DHT22;4700;48.822;9.270;2023-02-01T18:05:21;6.60;1.00
9323;DHT22;4700;48.822;9.270;2023-02-01T18:08:08;6.70;1.00
9323;DHT22;4700;48.822;9.270;2023-02-01T18:10:55;6.50;1.00
9323;DHT22;4700;48.822;9.270;2023-02-01T18:13:44;6.40;1.00
9323;DHT22;4700;48.822;9.270;2023-02-01T18:16:33;6.50;1.00
9323;DHT22;4700;48.822;9.270;2023-02-01T18:19:20;6.50;1.00
9323;DHT22;4700;48.822;9.270;2023-02-01T18:22:06;6.30;1.00
9323;DHT22;4700;48.822;9.270;2023-02-01T18:24:54;6.50;1.00
9323;DHT22;4700;48.822;9.270;2023-02-01T18:27:39;6.50;1.00
9323;DHT22;4700;48.822;9.270;2023-02-01T18:30:31;6.50;1.00
9323;DHT22;4700;48.822;9.270;2023-02-01T18:33:19;6.60;1.00
9323;DHT22;4700;48.822;9.270;2023-02-01T18:36:07;6.50;1.00
9323;DHT22;4700;48.822;9.270;2023-02-01T18:38:54;6.50;1.00
9323;DHT22;4700;48.822;9.270;2023-02-01T18:41:48;6.60;1.00
9323;DHT22;4700;48.822;9.270;2023-02-01T18:44:36;6.50;1.00
9323;DHT22;4700;48.822;9.270;2023-02-01T18:47:23;6.60;1.00
9323;DHT22;4700;48.822;9.270;2023-02-01T18:50:09;6.60;1.00
9323;DHT22;4700;48.822;9.270;2023-02-01T18:52:57;6.60;1.00
9323;DHT22;4700;48.822;9.270;2023-02-01T18:55:43;6.60;1.00
9323;DHT22;4700;48.822;9.270;2023-02-01T18:58:29;6.50;1.00
9323;DHT22;4700;48.822;9.270;2023-02-01T19:01:17;6.60;1.00
9323;DHT22;4700;48.822;9.270;2023-02-01T19:04:04;6.60;1.00
9323;DHT22;4700;48.822;9.270;2023-02-01T19:06:50;6.50;1.00
9323;DHT22;4700;48.822;9.270;2023-02-01T19:09:36;6.60;1.00
9323;DHT22;4700;48.822;9.270;2023-02-01T19:12:22;6.60;1.00
9323;DHT22;4700;48.822;9.270;2023-02-01T19:15:10;6.60;1.00
9323;DHT22;4700;48.822;9.270;2023-02-01T19:17:59;6.60;1.00
9323;DHT22;4700;48.822;9.270;2023-02-01T19:20:47;6.60;1.00
9323;DHT22;4700;48.822;9.270;2023-02-01T19:23:34;6.60;1.00
9323;DHT22;4700;48.822;9.270;2023-02-01T19:26:20;6.50;1.00
9323;DHT22;4700;48.822;9.270;2023-02-01T19:29:06;6.70;1.00
9323;DHT22;4700;48.822;9.270;2023-02-01T19:31:52;6.50;1.00
9323;DHT22;4700;48.822;9.270;2023-02-01T19:34:38;6.60;1.00
9323;DHT22;4700;48.822;9.270;2023-02-01T19:37:25;6.50;1.00